createdAt,value
2024-02-18T00:01:57.566Z,11.53
2024-02-18T00:07:03.924Z,12.88
2024-02-18T00:12:08.418Z,13.60
2024-02-18T00:17:11.686Z,13.07
2024-02-18T00:22:15.097Z,13.67
2024-02-18T00:27:18.962Z,12.90
2024-02-18T00:32:23.245Z,13.55
2024-02-18T00:37:27.743Z,12.15
2024-02-18T00:42:31.274Z,10.60
2024-02-18T00:47:34.746Z,12.13
2024-02-18T00:52:38.093Z,13.90
2024-02-18T00:57:42.588Z,15.03
2024-02-18T01:02:46.277Z,15.00
2024-02-18T01:07:49.553Z,14.23
2024-02-18T01:12:53.027Z,16.10
2024-02-18T01:17:56.601Z,15.43
2024-02-18T01:23:00.003Z,16.08
2024-02-18T01:28:04.407Z,15.23
2024-02-18T01:33:08.028Z,15.13
2024-02-18T01:38:12.190Z,16.77
2024-02-18T01:43:19.862Z,16.70
2024-02-18T01:48:25.931Z,17.02
2024-02-18T01:53:29.694Z,16.88
2024-02-18T01:58:34.823Z,16.73
2024-02-18T02:09:01.161Z,14.50
2024-02-18T02:14:04.560Z,12.43
2024-02-18T02:19:08.518Z,10.43
2024-02-18T02:24:14.629Z,10.95
2024-02-18T02:29:18.201Z,9.95
2024-02-18T02:34:24.344Z,7.53
2024-02-18T02:39:27.721Z,6.47
2024-02-18T02:44:31.164Z,6.07
2024-02-18T02:49:34.575Z,6.10
2024-02-18T02:54:38.038Z,5.67
2024-02-18T02:59:41.635Z,5.40
2024-02-18T03:04:45.546Z,5.05
2024-02-18T03:09:48.826Z,5.05
2024-02-18T03:14:52.829Z,3.60
2024-02-18T03:19:56.728Z,4.05
2024-02-18T03:25:01.846Z,4.05
2024-02-18T03:30:09.060Z,3.40
2024-02-18T03:35:14.210Z,3.03
2024-02-18T03:40:18.119Z,2.90
2024-02-18T03:45:22.136Z,3.22
2024-02-18T03:50:26.093Z,3.45
2024-02-18T03:55:31.208Z,2.80
2024-02-18T04:00:35.408Z,2.17
2024-02-18T04:05:39.461Z,2.70
2024-02-18T04:16:01.695Z,2.17
2024-02-18T04:21:06.146Z,1.50
2024-02-18T04:26:10.228Z,1.63
2024-02-18T04:31:13.808Z,1.60
2024-02-18T04:36:18.341Z,1.90
2024-02-18T04:41:22.959Z,1.95
2024-02-18T04:46:26.652Z,2.13
2024-02-18T04:51:30.551Z,1.52
2024-02-18T04:56:34.571Z,1.50
2024-02-18T05:06:50.557Z,1.75
2024-02-18T05:11:54.732Z,1.55
2024-02-18T05:17:01.007Z,1.67
2024-02-18T05:22:06.552Z,2.47
2024-02-18T05:27:10.863Z,2.10
2024-02-18T05:37:18.300Z,2.45
2024-02-18T05:47:27.119Z,1.90
2024-02-18T05:52:30.733Z,1.83
2024-02-18T05:57:34.454Z,2.30
2024-02-18T06:02:39.675Z,1.92
2024-02-18T06:13:02.166Z,2.13
2024-02-18T06:18:06.185Z,2.33
2024-02-18T06:28:14.112Z,2.40
2024-02-18T06:33:18.572Z,1.85
2024-02-18T06:38:22.726Z,2.25
2024-02-18T06:43:26.035Z,2.83
2024-02-18T06:48:30.654Z,3.13
2024-02-18T06:53:34.563Z,2.67
2024-02-18T06:58:38.291Z,3.17
2024-02-18T07:03:43.068Z,4.03
2024-02-18T07:08:47.688Z,3.60
2024-02-18T07:13:52.723Z,4.88
2024-02-18T07:18:57.104Z,3.10
2024-02-18T07:24:01.005Z,2.55
2024-02-18T07:29:06.355Z,2.87
2024-02-18T07:34:10.660Z,2.90
2024-02-18T07:39:14.826Z,3.00
2024-02-18T07:44:18.997Z,2.97
2024-02-18T07:49:24.125Z,2.70
2024-02-18T07:54:28.626Z,3.35
2024-02-18T07:59:36.455Z,3.20
2024-02-18T08:04:42.441Z,3.22
2024-02-18T08:09:46.907Z,3.20
2024-02-18T08:19:55.600Z,3.55
2024-02-18T08:25:00.173Z,3.70
2024-02-18T08:30:05.659Z,4.25
2024-02-18T08:35:09.918Z,3.95
2024-02-18T08:40:14.643Z,3.92
2024-02-18T08:50:22.652Z,4.05
2024-02-18T08:55:28.981Z,4.35
2024-02-18T09:00:33.125Z,3.85
2024-02-18T09:10:57.898Z,4.50
2024-02-18T09:16:01.657Z,5.13
2024-02-18T09:21:06.497Z,5.13
2024-02-18T09:26:12.082Z,4.90
2024-02-18T09:31:16.591Z,5.25
2024-02-18T09:36:20.321Z,5.55
2024-02-18T09:41:29.265Z,5.40
2024-02-18T09:46:38.574Z,7.82
2024-02-18T09:51:42.768Z,5.53
2024-02-18T09:56:46.374Z,5.43
2024-02-18T10:01:56.203Z,5.40
2024-02-18T10:06:59.705Z,5.65
2024-02-18T10:12:04.182Z,5.95
2024-02-18T10:17:09.001Z,6.05
2024-02-18T10:22:12.724Z,6.80
2024-02-18T10:27:17.881Z,6.93
2024-02-18T10:32:21.522Z,6.57
2024-02-18T10:37:32.139Z,6.60
2024-02-18T10:42:38.985Z,8.43
2024-02-18T10:47:47.155Z,9.13
2024-02-18T10:52:56.197Z,8.60
2024-02-18T10:58:28.295Z,7.45
2024-02-18T11:03:40.625Z,8.40
2024-02-18T11:08:47.781Z,9.43
2024-02-18T11:13:53.261Z,9.00
2024-02-18T11:18:57.784Z,9.73
2024-02-18T11:24:01.715Z,9.38
2024-02-18T11:29:06.573Z,9.87
2024-02-18T11:39:15.305Z,8.88
2024-02-18T11:44:20.559Z,8.95
2024-02-18T11:49:25.351Z,9.63
2024-02-18T11:54:28.969Z,8.05
2024-02-18T11:59:35.563Z,8.23
2024-02-18T12:04:40.066Z,9.02
2024-02-18T12:09:45.209Z,8.20
2024-02-18T12:14:55.238Z,9.32
2024-02-18T12:19:59.493Z,9.88
2024-02-18T12:25:05.619Z,8.98
2024-02-18T12:30:10.844Z,9.73
2024-02-18T12:35:14.486Z,9.40
2024-02-18T12:40:18.612Z,6.85
2024-02-18T12:45:42.668Z,9.13
2024-02-18T12:51:13.905Z,6.00
2024-02-18T12:56:18.785Z,7.75
2024-02-18T13:01:23.480Z,7.20
2024-02-18T13:11:31.039Z,6.43
2024-02-18T13:16:34.556Z,6.80
2024-02-18T13:21:38.376Z,8.00
2024-02-18T13:26:42.459Z,5.77
2024-02-18T13:31:46.092Z,6.20
2024-02-18T13:36:51.178Z,6.13
2024-02-18T13:41:55.671Z,5.50
2024-02-18T13:47:00.321Z,6.00
2024-02-18T13:52:04.438Z,5.38
2024-02-18T13:57:09.271Z,5.28
2024-02-18T14:07:20.782Z,5.30
2024-02-18T14:12:24.066Z,4.93
2024-02-18T14:17:27.552Z,4.53
2024-02-18T14:22:31.114Z,4.72
2024-02-18T14:27:35.289Z,4.20
2024-02-18T14:32:39.059Z,4.97
2024-02-18T14:37:43.053Z,5.03
2024-02-18T14:42:47.157Z,5.83
2024-02-18T14:47:51.232Z,6.40
2024-02-18T14:52:57.619Z,5.40
2024-02-18T14:58:01.974Z,5.72
2024-02-18T15:03:05.949Z,5.38
2024-02-18T15:08:09.305Z,5.67
2024-02-18T15:13:14.790Z,6.45
2024-02-18T15:18:19.391Z,5.18
2024-02-18T15:23:23.800Z,4.57
2024-02-18T15:28:27.786Z,4.72
2024-02-18T15:33:31.372Z,5.50
2024-02-18T15:38:35.215Z,5.22
2024-02-18T15:43:39.833Z,5.63
2024-02-18T15:48:43.446Z,5.90
2024-02-18T15:53:47.609Z,6.15
2024-02-18T15:58:54.554Z,6.73
2024-02-18T16:03:59.060Z,5.25
2024-02-18T16:09:07.120Z,4.50
2024-02-18T16:14:10.629Z,5.30
2024-02-18T16:24:32.085Z,5.22
2024-02-18T16:29:36.725Z,6.15
2024-02-18T16:34:41.438Z,6.35
2024-02-18T16:44:50.084Z,6.93
2024-02-18T16:49:53.868Z,8.43
2024-02-18T16:54:57.220Z,8.40
2024-02-18T17:00:01.226Z,9.57
2024-02-18T17:05:07.633Z,11.77
2024-02-18T17:10:12.637Z,12.32
2024-02-18T17:15:16.106Z,12.77
2024-02-18T17:20:20.049Z,11.40
2024-02-18T17:25:24.304Z,12.93
2024-02-18T17:30:30.606Z,9.20
2024-02-18T17:35:34.584Z,9.52
2024-02-18T17:40:38.667Z,7.70
2024-02-18T17:45:42.827Z,8.85
2024-02-18T17:50:46.364Z,8.82
2024-02-18T17:55:50.827Z,7.78
2024-02-18T18:00:54.223Z,8.98
2024-02-18T18:05:57.736Z,7.88
2024-02-18T18:11:01.473Z,8.57
2024-02-18T18:16:08.754Z,10.00
2024-02-18T18:21:12.670Z,10.45
2024-02-18T18:26:17.482Z,9.27
2024-02-18T18:31:21.455Z,9.85
2024-02-18T18:36:25.323Z,7.03
2024-02-18T18:41:30.036Z,6.82
2024-02-18T18:46:37.133Z,8.13
2024-02-18T18:51:41.199Z,6.78
2024-02-18T18:56:44.441Z,9.23
2024-02-18T19:01:48.850Z,7.25
2024-02-18T19:06:52.355Z,6.40
2024-02-18T19:11:57.133Z,6.03
2024-02-18T19:17:00.976Z,7.82
2024-02-18T19:22:04.858Z,9.10
2024-02-18T19:27:09.233Z,7.80
2024-02-18T19:32:13.608Z,11.98
2024-02-18T19:37:17.788Z,9.52
2024-02-18T19:42:21.091Z,6.45
2024-02-18T19:47:26.209Z,5.35
2024-02-18T19:52:29.611Z,7.45
2024-02-18T19:57:32.995Z,10.65
2024-02-18T20:02:36.947Z,8.73
2024-02-18T20:07:40.459Z,9.23
2024-02-18T20:12:45.390Z,7.03
2024-02-18T20:17:51.911Z,7.13
2024-02-18T20:28:03.440Z,7.63
2024-02-18T20:33:07.485Z,8.85
2024-02-18T20:38:11.669Z,8.02
2024-02-18T20:43:15.074Z,8.07
2024-02-18T20:48:18.526Z,8.20
2024-02-18T20:53:23.119Z,8.80
2024-02-18T20:58:26.416Z,10.07
2024-02-18T21:03:30.281Z,8.95
2024-02-18T21:08:36.402Z,8.52
2024-02-18T21:13:39.744Z,8.88
2024-02-18T21:18:43.345Z,9.23
2024-02-18T21:23:47.102Z,6.97
2024-02-18T21:28:50.985Z,9.73
2024-02-18T21:33:54.753Z,7.22
2024-02-18T21:38:58.185Z,7.38
2024-02-18T21:44:06.106Z,6.57
2024-02-18T21:49:10.082Z,6.68
2024-02-18T21:54:13.621Z,6.55
2024-02-18T21:59:17.533Z,5.43
2024-02-18T22:04:21.169Z,7.68
2024-02-18T22:09:24.841Z,7.13
2024-02-18T22:14:28.694Z,6.13
2024-02-18T22:19:32.451Z,5.53
2024-02-18T22:24:36.134Z,4.57
2024-02-18T22:29:41.142Z,5.23
2024-02-18T22:34:45.141Z,4.57
2024-02-18T22:39:49.029Z,5.47
2024-02-18T22:44:53.075Z,6.20
2024-02-18T22:49:56.881Z,6.28
2024-02-18T22:55:00.215Z,5.20
2024-02-18T23:00:17.228Z,4.40
2024-02-18T23:05:20.653Z,5.47
2024-02-18T23:10:24.476Z,4.20
2024-02-18T23:15:29.091Z,5.75
2024-02-18T23:20:32.336Z,4.40
2024-02-18T23:25:35.631Z,4.18
2024-02-18T23:30:40.157Z,3.10
2024-02-18T23:35:44.472Z,3.75
2024-02-18T23:40:48.384Z,3.58
2024-02-18T23:45:51.965Z,4.05
2024-02-18T23:50:56.045Z,3.60
2024-02-18T23:56:00.262Z,4.75
